createdAt,value
2023-04-27T00:00:34.201Z,46.30
2023-04-27T00:03:01.996Z,46.30
2023-04-27T00:05:28.693Z,46.20
2023-04-27T00:07:55.230Z,46.40
2023-04-27T00:10:21.801Z,46.50
2023-04-27T00:12:48.282Z,46.40
2023-04-27T00:15:14.738Z,46.50
2023-04-27T00:17:41.244Z,46.50
2023-04-27T00:20:07.736Z,46.50
2023-04-27T00:22:34.216Z,46.40
2023-04-27T00:25:00.694Z,46.40
2023-04-27T00:27:27.190Z,46.40
2023-04-27T00:29:53.663Z,46.40
2023-04-27T00:32:20.182Z,46.40
2023-04-27T00:34:46.692Z,46.40
2023-04-27T00:37:13.156Z,46.50
2023-04-27T00:39:43.830Z,46.40
2023-04-27T00:42:10.297Z,46.40
2023-04-27T00:44:38.057Z,46.30
2023-04-27T00:47:06.191Z,46.40
2023-04-27T00:49:32.667Z,46.40
2023-04-27T00:51:59.158Z,46.40
2023-04-27T00:54:25.650Z,46.50
2023-04-27T00:56:52.176Z,46.50
2023-04-27T00:59:18.632Z,46.60
2023-04-27T01:01:45.160Z,46.60
2023-04-27T01:04:11.852Z,46.60
2023-04-27T01:06:43.971Z,46.40
2023-04-27T01:09:10.433Z,46.40
2023-04-27T01:11:36.916Z,46.50
2023-04-27T01:14:03.405Z,46.40
2023-04-27T01:16:29.912Z,46.50
2023-04-27T01:18:56.437Z,46.60
2023-04-27T01:21:22.913Z,46.60
2023-04-27T01:23:49.396Z,46.50
2023-04-27T01:26:15.867Z,46.50
2023-04-27T01:28:42.347Z,46.50
2023-04-27T01:31:08.980Z,46.40
2023-04-27T01:33:35.502Z,46.40
2023-04-27T01:36:01.975Z,46.30
2023-04-27T01:38:28.482Z,46.40
2023-04-27T01:40:54.981Z,46.40
2023-04-27T01:43:21.493Z,46.40
2023-04-27T01:45:49.801Z,46.30
2023-04-27T01:48:16.322Z,46.30
2023-04-27T01:50:42.798Z,46.20
2023-04-27T01:53:09.311Z,46.20
2023-04-27T01:55:35.798Z,46.40
2023-04-27T01:58:07.819Z,46.40
2023-04-27T02:00:34.270Z,46.30
2023-04-27T02:03:00.850Z,46.20
2023-04-27T02:05:27.396Z,46.20
2023-04-27T02:07:53.873Z,46.20
2023-04-27T02:10:20.338Z,46.20
2023-04-27T02:12:46.818Z,46.20
2023-04-27T02:15:13.316Z,46.20
2023-04-27T02:17:39.862Z,46.20
2023-04-27T02:20:06.394Z,46.20
2023-04-27T02:22:32.881Z,46.20
2023-04-27T02:25:02.004Z,46.10
2023-04-27T02:27:28.550Z,46.30
2023-04-27T02:29:55.447Z,46.20
2023-04-27T02:32:22.362Z,46.20
2023-04-27T02:34:48.834Z,46.20
2023-04-27T02:37:15.317Z,46.20
2023-04-27T02:39:41.833Z,46.00
2023-04-27T02:42:08.315Z,46.10
2023-04-27T02:44:34.857Z,46.10
2023-04-27T02:47:01.394Z,46.30
2023-04-27T02:49:27.921Z,46.30
2023-04-27T02:51:54.409Z,46.30
2023-04-27T02:54:20.897Z,46.20
2023-04-27T02:56:47.389Z,46.20
2023-04-27T02:59:14.162Z,46.10
2023-04-27T03:01:40.813Z,46.10
2023-04-27T03:04:07.527Z,46.20
2023-04-27T03:06:34.130Z,46.20
2023-04-27T03:09:00.630Z,46.10
2023-04-27T03:11:27.154Z,46.20
2023-04-27T03:13:53.658Z,46.10
2023-04-27T03:16:20.156Z,46.40
2023-04-27T03:18:46.642Z,46.20
2023-04-27T03:21:13.125Z,46.30
2023-04-27T03:23:39.611Z,46.30
2023-04-27T03:26:06.081Z,46.10
2023-04-27T03:28:32.602Z,46.00
2023-04-27T03:30:59.100Z,46.00
2023-04-27T03:33:25.866Z,46.00
2023-04-27T03:35:55.913Z,46.10
2023-04-27T03:38:22.393Z,46.20
2023-04-27T03:40:48.864Z,46.20
2023-04-27T03:43:15.339Z,46.00
2023-04-27T03:45:41.908Z,46.10
2023-04-27T03:48:08.466Z,46.00
2023-04-27T03:50:35.024Z,46.10
2023-04-27T03:53:01.508Z,46.00
2023-04-27T03:55:27.990Z,46.10
2023-04-27T03:57:54.467Z,46.10
2023-04-27T04:00:20.965Z,46.20
2023-04-27T04:02:47.620Z,46.10
2023-04-27T04:05:14.387Z,46.20
2023-04-27T04:07:41.029Z,46.20
2023-04-27T04:10:07.537Z,46.10
2023-04-27T04:12:33.991Z,46.20
2023-04-27T04:15:00.486Z,46.00
2023-04-27T04:17:27.000Z,46.10
2023-04-27T04:19:53.556Z,45.90
2023-04-27T04:22:20.028Z,46.00
2023-04-27T04:24:46.515Z,46.00
2023-04-27T04:27:13.037Z,46.20
2023-04-27T04:29:39.523Z,46.10
2023-04-27T04:32:05.995Z,46.10
2023-04-27T04:34:37.957Z,46.00
2023-04-27T04:37:08.155Z,46.00
2023-04-27T04:39:34.681Z,45.70
2023-04-27T04:42:01.211Z,45.60
2023-04-27T04:44:31.974Z,45.60
2023-04-27T04:46:58.545Z,45.50
2023-04-27T04:49:25.064Z,45.20
2023-04-27T04:51:51.770Z,45.10
2023-04-27T04:54:18.360Z,44.90
2023-04-27T04:56:44.821Z,45.10
2023-04-27T04:59:11.407Z,45.00
2023-04-27T05:01:38.051Z,45.10
2023-04-27T05:04:04.698Z,45.20
2023-04-27T05:06:31.237Z,45.30
2023-04-27T05:08:57.721Z,45.30
2023-04-27T05:11:24.198Z,45.40
2023-04-27T05:13:50.649Z,45.40
2023-04-27T05:16:17.174Z,45.30
2023-04-27T05:18:43.711Z,45.20
2023-04-27T05:21:10.193Z,45.00
2023-04-27T05:23:36.677Z,45.20
2023-04-27T05:26:03.171Z,45.30
2023-04-27T05:28:29.626Z,45.20
2023-04-27T05:30:56.107Z,45.20
2023-04-27T05:33:22.586Z,45.10
2023-04-27T05:35:49.082Z,45.20
2023-04-27T05:38:15.573Z,45.40
2023-04-27T05:40:42.106Z,45.20
2023-04-27T05:43:08.634Z,45.40
2023-04-27T05:45:35.172Z,45.50
2023-04-27T05:48:01.841Z,45.50
2023-04-27T05:50:28.421Z,45.50
2023-04-27T05:52:54.906Z,45.50
2023-04-27T05:55:21.400Z,45.70
2023-04-27T05:57:54.514Z,45.80
2023-04-27T06:00:31.070Z,45.60
2023-04-27T06:02:57.734Z,45.60
2023-04-27T06:05:24.451Z,45.70
2023-04-27T06:07:50.949Z,45.80
2023-04-27T06:10:17.444Z,45.90
2023-04-27T06:12:45.838Z,46.00
2023-04-27T06:15:12.917Z,46.00
2023-04-27T06:17:39.421Z,46.10
2023-04-27T06:20:05.930Z,46.80
2023-04-27T06:22:38.062Z,46.20
2023-04-27T06:25:04.518Z,46.10
2023-04-27T06:27:31.011Z,46.30
2023-04-27T06:29:57.496Z,46.20
2023-04-27T06:32:26.088Z,46.20
2023-04-27T06:34:52.572Z,46.10
2023-04-27T06:37:19.053Z,46.10
2023-04-27T06:39:46.760Z,46.20
2023-04-27T06:42:13.342Z,46.10
2023-04-27T06:44:39.823Z,46.20
2023-04-27T06:47:08.072Z,46.10
2023-04-27T06:49:34.538Z,46.00
2023-04-27T06:52:01.045Z,46.10
2023-04-27T06:54:27.553Z,46.20
2023-04-27T06:56:54.052Z,46.30
2023-04-27T06:59:20.540Z,46.10
2023-04-27T07:01:47.130Z,46.40
2023-04-27T07:04:13.735Z,46.30
2023-04-27T07:06:40.369Z,46.40
2023-04-27T07:09:16.302Z,46.40
2023-04-27T07:11:52.876Z,46.30
2023-04-27T07:14:20.047Z,46.10
2023-04-27T07:16:46.536Z,46.00
2023-04-27T07:19:13.201Z,46.00
2023-04-27T07:21:39.839Z,46.10
2023-04-27T07:24:06.325Z,46.10
2023-04-27T07:26:32.813Z,46.00
2023-04-27T07:28:59.273Z,45.90
2023-04-27T07:31:25.796Z,46.10
2023-04-27T07:33:52.307Z,46.10
2023-04-27T07:36:18.813Z,46.20
2023-04-27T07:38:45.298Z,46.30
2023-04-27T07:41:11.800Z,46.20
2023-04-27T07:43:38.269Z,46.30
2023-04-27T07:46:04.789Z,46.30
2023-04-27T07:48:31.296Z,46.30
2023-04-27T07:50:57.765Z,46.20
2023-04-27T07:53:24.230Z,46.10
2023-04-27T07:55:50.721Z,46.30
2023-04-27T07:58:17.209Z,46.30
2023-04-27T08:00:43.748Z,46.10
2023-04-27T08:03:10.474Z,46.40
2023-04-27T08:05:37.400Z,46.30
2023-04-27T08:08:04.589Z,46.20
2023-04-27T08:10:31.135Z,46.30
2023-04-27T08:12:57.608Z,46.30
2023-04-27T08:15:26.096Z,46.30
2023-04-27T08:17:56.167Z,46.20
2023-04-27T08:20:22.670Z,46.50
2023-04-27T08:22:49.148Z,46.20
2023-04-27T08:25:15.626Z,46.20
2023-04-27T08:27:42.110Z,46.30
2023-04-27T08:30:08.650Z,46.40
2023-04-27T08:32:35.182Z,46.50
2023-04-27T08:35:01.767Z,46.10
2023-04-27T08:37:28.267Z,46.60
2023-04-27T08:39:54.746Z,46.70
2023-04-27T08:42:21.225Z,46.30
2023-04-27T08:44:47.717Z,46.70
2023-04-27T08:47:14.202Z,46.70
2023-04-27T08:49:40.678Z,46.50
2023-04-27T08:52:07.172Z,46.70
2023-04-27T08:54:33.659Z,46.50
2023-04-27T08:57:00.137Z,46.60
2023-04-27T08:59:26.623Z,46.70
2023-04-27T09:01:53.276Z,46.40
2023-04-27T09:04:20.081Z,46.60
2023-04-27T09:06:46.841Z,46.60
2023-04-27T09:09:13.549Z,46.40
2023-04-27T09:11:40.139Z,46.70
2023-04-27T09:14:06.625Z,46.60
2023-04-27T09:16:33.140Z,46.60
2023-04-27T09:18:59.661Z,46.50
2023-04-27T09:21:26.141Z,46.50
2023-04-27T09:23:52.628Z,46.40
2023-04-27T09:26:19.110Z,46.50
2023-04-27T09:28:45.592Z,46.50
2023-04-27T09:31:12.111Z,46.30
2023-04-27T09:33:38.664Z,46.50
2023-04-27T09:36:05.156Z,46.50
2023-04-27T09:38:31.654Z,46.30
2023-04-27T09:40:58.296Z,46.40
2023-04-27T09:43:24.773Z,46.40
2023-04-27T09:45:51.250Z,46.30
2023-04-27T09:48:20.205Z,46.20
2023-04-27T09:50:46.656Z,46.50
2023-04-27T09:53:13.128Z,46.30
2023-04-27T09:55:39.596Z,46.30
2023-04-27T09:58:06.059Z,46.20
2023-04-27T10:00:32.545Z,46.30
2023-04-27T10:02:59.142Z,46.30
2023-04-27T10:05:25.755Z,46.30
2023-04-27T10:07:52.353Z,46.40
2023-04-27T10:10:22.580Z,46.50
2023-04-27T10:12:49.054Z,46.50
2023-04-27T10:15:15.533Z,46.50
2023-04-27T10:17:42.014Z,46.50
2023-04-27T10:20:08.540Z,46.50
2023-04-27T10:22:36.040Z,46.50
2023-04-27T10:25:02.620Z,46.50
2023-04-27T10:27:29.123Z,46.30
2023-04-27T10:29:55.611Z,46.50
2023-04-27T10:32:22.134Z,46.50
2023-04-27T10:34:48.684Z,46.50
2023-04-27T10:37:15.176Z,46.50
2023-04-27T10:39:49.431Z,46.60
2023-04-27T10:42:16.632Z,46.50
2023-04-27T10:44:43.112Z,46.50
2023-04-27T10:47:09.598Z,46.50
2023-04-27T10:49:36.088Z,46.70
2023-04-27T10:52:02.569Z,46.60
2023-04-27T10:54:29.054Z,46.60
2023-04-27T10:56:55.532Z,46.50
2023-04-27T10:59:26.311Z,46.60
2023-04-27T11:01:52.811Z,46.70
2023-04-27T11:04:19.357Z,46.60
2023-04-27T11:06:45.969Z,46.50
2023-04-27T11:09:12.519Z,46.60
2023-04-27T11:11:39.050Z,46.50
2023-04-27T11:14:05.570Z,46.60
2023-04-27T11:16:32.844Z,46.50
2023-04-27T11:18:59.803Z,46.50
2023-04-27T11:21:26.338Z,46.60
2023-04-27T11:23:52.848Z,46.60
2023-04-27T11:26:19.310Z,46.70
2023-04-27T11:28:45.844Z,46.60
2023-04-27T11:31:12.353Z,46.60
2023-04-27T11:33:38.963Z,46.70
2023-04-27T11:36:05.424Z,46.70
2023-04-27T11:38:31.931Z,46.70
2023-04-27T11:40:58.418Z,46.70
2023-04-27T11:43:24.918Z,46.70
2023-04-27T11:45:51.389Z,46.70
2023-04-27T11:48:19.743Z,46.70
2023-04-27T11:50:46.210Z,46.60
2023-04-27T11:53:12.696Z,46.70
2023-04-27T11:55:39.167Z,46.80
2023-04-27T11:58:05.666Z,46.80
2023-04-27T12:00:32.178Z,46.80
2023-04-27T12:02:58.974Z,46.60
2023-04-27T12:05:25.693Z,46.70
2023-04-27T12:07:52.218Z,46.70
2023-04-27T12:10:18.714Z,46.90
2023-04-27T12:12:45.278Z,46.80
2023-04-27T12:15:11.761Z,46.80
2023-04-27T12:17:38.309Z,46.70
2023-04-27T12:20:04.781Z,46.80
2023-04-27T12:22:31.338Z,46.80
2023-04-27T12:24:57.821Z,46.80
2023-04-27T12:27:24.289Z,46.80
2023-04-27T12:29:50.766Z,46.80
2023-04-27T12:32:17.244Z,46.80
2023-04-27T12:34:44.351Z,46.70
2023-04-27T12:37:10.829Z,46.70
2023-04-27T12:39:37.325Z,46.70
2023-04-27T12:42:03.803Z,46.80
2023-04-27T12:44:30.283Z,46.60
2023-04-27T12:46:56.772Z,46.70
2023-04-27T12:49:23.285Z,46.70
2023-04-27T12:51:49.753Z,46.70
2023-04-27T12:54:16.594Z,46.70
2023-04-27T12:56:43.366Z,47.30
2023-04-27T12:59:09.865Z,46.70
2023-04-27T13:01:36.413Z,47.40
2023-04-27T13:04:03.379Z,46.70
2023-04-27T13:06:30.084Z,46.80
2023-04-27T13:08:56.593Z,46.90
2023-04-27T13:11:23.102Z,46.70
2023-04-27T13:13:49.565Z,46.80
2023-04-27T13:16:16.089Z,46.70
2023-04-27T13:18:42.603Z,46.90
2023-04-27T13:21:09.097Z,46.80
2023-04-27T13:23:35.617Z,46.80
2023-04-27T13:26:02.148Z,46.60
2023-04-27T13:28:28.656Z,46.80
2023-04-27T13:30:55.149Z,46.70
2023-04-27T13:33:23.523Z,46.80
2023-04-27T13:35:50.388Z,46.90
2023-04-27T13:38:16.853Z,46.80
2023-04-27T13:40:43.341Z,46.70
2023-04-27T13:43:09.858Z,46.80
2023-04-27T13:45:36.375Z,46.80
2023-04-27T13:48:02.963Z,46.80
2023-04-27T13:50:29.542Z,46.70
2023-04-27T13:52:56.022Z,46.60
2023-04-27T13:55:22.537Z,46.60
2023-04-27T13:57:49.014Z,46.70
2023-04-27T14:00:15.528Z,46.60
2023-04-27T14:02:42.092Z,46.60
2023-04-27T14:05:08.646Z,46.50
2023-04-27T14:07:35.132Z,46.70
2023-04-27T14:10:01.628Z,46.50
2023-04-27T14:12:28.104Z,46.60
2023-04-27T14:14:55.438Z,46.30
2023-04-27T14:17:22.707Z,46.30
2023-04-27T14:19:49.190Z,46.50
2023-04-27T14:22:15.657Z,46.50
2023-04-27T14:24:42.136Z,46.50
2023-04-27T14:27:08.612Z,46.50
2023-04-27T14:29:35.076Z,46.10
2023-04-27T14:32:01.602Z,46.20
2023-04-27T14:34:28.148Z,45.80
2023-04-27T14:36:54.631Z,46.00
2023-04-27T14:39:21.098Z,46.10
2023-04-27T14:41:47.604Z,46.20
2023-04-27T14:44:14.080Z,46.00
2023-04-27T14:46:40.600Z,46.00
2023-04-27T14:49:07.195Z,45.80
2023-04-27T14:51:33.698Z,46.20
2023-04-27T14:54:00.174Z,46.00
2023-04-27T14:56:26.729Z,45.70
2023-04-27T14:58:53.196Z,45.20
2023-04-27T15:01:19.748Z,45.50
2023-04-27T15:03:46.424Z,45.30
2023-04-27T15:06:13.126Z,45.10
2023-04-27T15:08:39.599Z,45.40
2023-04-27T15:11:06.088Z,45.30
2023-04-27T15:13:32.570Z,45.10
2023-04-27T15:15:59.113Z,45.30
2023-04-27T15:18:26.520Z,45.20
2023-04-27T15:20:53.013Z,45.20
2023-04-27T15:23:19.501Z,45.20
2023-04-27T15:25:45.981Z,45.30
2023-04-27T15:28:14.507Z,45.20
2023-04-27T15:30:40.982Z,45.30
2023-04-27T15:33:10.122Z,45.20
2023-04-27T15:35:36.784Z,45.20
2023-04-27T15:38:03.280Z,45.30
2023-04-27T15:40:32.474Z,45.20
2023-04-27T15:42:58.969Z,45.30
2023-04-27T15:45:25.459Z,45.30
2023-04-27T15:47:52.005Z,45.30
2023-04-27T15:50:18.498Z,45.40
2023-04-27T15:52:44.991Z,45.30
2023-04-27T15:55:11.471Z,45.40
2023-04-27T15:57:37.960Z,45.30
2023-04-27T16:00:04.443Z,45.40
2023-04-27T16:02:31.069Z,45.40
2023-04-27T16:04:57.597Z,45.30
2023-04-27T16:07:24.088Z,45.30
2023-04-27T16:09:50.583Z,45.30
2023-04-27T16:12:17.087Z,45.40
2023-04-27T16:14:43.555Z,45.30
2023-04-27T16:17:14.553Z,45.30
2023-04-27T16:19:41.021Z,45.50
2023-04-27T16:22:07.510Z,45.40
2023-04-27T16:24:33.992Z,45.40
2023-04-27T16:27:00.471Z,45.30
2023-04-27T16:29:26.975Z,45.50
2023-04-27T16:31:53.541Z,45.50
2023-04-27T16:34:20.085Z,45.40
2023-04-27T16:36:46.581Z,45.30
2023-04-27T16:39:14.673Z,45.40
2023-04-27T16:41:41.324Z,45.40
2023-04-27T16:44:07.811Z,45.40
2023-04-27T16:46:34.372Z,45.40
2023-04-27T16:49:00.897Z,45.40
2023-04-27T16:51:27.379Z,45.40
2023-04-27T16:53:53.867Z,45.50
2023-04-27T16:56:20.333Z,45.40
2023-04-27T16:58:46.814Z,45.50
2023-04-27T17:01:13.332Z,45.40
2023-04-27T17:03:39.929Z,45.50
2023-04-27T17:06:06.480Z,45.50
2023-04-27T17:08:32.951Z,45.50
2023-04-27T17:10:59.432Z,45.50
2023-04-27T17:13:25.924Z,45.50
2023-04-27T17:15:52.460Z,45.50
2023-04-27T17:18:19.002Z,45.50
2023-04-27T17:20:45.484Z,45.60
2023-04-27T17:23:11.960Z,45.50
2023-04-27T17:25:38.423Z,45.50
2023-04-27T17:28:04.893Z,45.50
2023-04-27T17:30:31.389Z,45.40
2023-04-27T17:32:57.964Z,45.50
2023-04-27T17:35:24.518Z,45.60
2023-04-27T17:37:51.003Z,45.60
2023-04-27T17:40:17.480Z,45.60
2023-04-27T17:42:43.974Z,45.60
2023-04-27T17:45:10.432Z,45.60
2023-04-27T17:47:36.913Z,45.60
2023-04-27T17:50:03.413Z,45.50
2023-04-27T17:52:29.903Z,45.50
2023-04-27T17:54:56.651Z,45.50
2023-04-27T17:57:26.644Z,45.60
2023-04-27T17:59:53.142Z,45.70
2023-04-27T18:02:19.715Z,45.60
2023-04-27T18:04:46.274Z,45.50
2023-04-27T18:07:12.749Z,45.50
2023-04-27T18:09:39.236Z,46.00
2023-04-27T18:12:05.716Z,45.50
2023-04-27T18:14:32.219Z,45.60
2023-04-27T18:16:58.848Z,45.50
2023-04-27T18:19:25.385Z,45.60
2023-04-27T18:21:51.865Z,45.60
2023-04-27T18:24:18.349Z,45.50
2023-04-27T18:26:44.836Z,45.50
2023-04-27T18:29:11.363Z,45.50
2023-04-27T18:31:37.900Z,45.50
2023-04-27T18:34:04.425Z,45.60
2023-04-27T18:36:30.900Z,45.50
2023-04-27T18:38:57.406Z,45.60
2023-04-27T18:41:23.890Z,45.60
2023-04-27T18:43:50.403Z,45.70
2023-04-27T18:46:16.905Z,45.60
2023-04-27T18:48:43.705Z,45.60
2023-04-27T18:51:10.199Z,45.60
2023-04-27T18:53:36.704Z,45.60
2023-04-27T18:56:03.219Z,45.60
2023-04-27T18:58:29.709Z,45.60
2023-04-27T19:00:56.199Z,45.80
2023-04-27T19:03:22.779Z,45.70
2023-04-27T19:05:49.358Z,45.70
2023-04-27T19:08:15.848Z,45.70
2023-04-27T19:10:42.355Z,45.70
2023-04-27T19:13:08.847Z,45.70
2023-04-27T19:15:35.354Z,45.80
2023-04-27T19:18:07.006Z,45.70
2023-04-27T19:20:37.226Z,45.80
2023-04-27T19:23:03.781Z,45.70
2023-04-27T19:25:30.295Z,45.70
2023-04-27T19:27:56.801Z,45.70
2023-04-27T19:30:23.276Z,45.70
2023-04-27T19:32:49.789Z,45.70
2023-04-27T19:35:16.316Z,45.60
2023-04-27T19:37:42.800Z,46.20
2023-04-27T19:40:09.281Z,45.70
2023-04-27T19:42:35.762Z,45.70
2023-04-27T19:45:02.235Z,45.70
2023-04-27T19:47:28.729Z,45.60
2023-04-27T19:49:55.265Z,45.70
2023-04-27T19:52:21.733Z,45.70
2023-04-27T19:54:48.221Z,45.90
2023-04-27T19:57:14.694Z,45.70
2023-04-27T19:59:41.244Z,45.70
2023-04-27T20:02:07.938Z,45.90
2023-04-27T20:04:34.759Z,45.70
2023-04-27T20:07:02.835Z,45.70
2023-04-27T20:09:30.286Z,46.50
2023-04-27T20:11:56.779Z,45.90
2023-04-27T20:14:23.268Z,46.50
2023-04-27T20:16:49.912Z,45.80
2023-04-27T20:19:20.950Z,45.90
2023-04-27T20:21:47.427Z,46.30
2023-04-27T20:24:14.183Z,45.60
2023-04-27T20:26:40.941Z,45.50
2023-04-27T20:29:07.414Z,45.70
2023-04-27T20:31:33.942Z,46.40
2023-04-27T20:34:00.457Z,45.70
2023-04-27T20:36:26.945Z,45.70
2023-04-27T20:38:53.452Z,45.70
2023-04-27T20:41:19.921Z,45.80
2023-04-27T20:43:46.407Z,45.50
2023-04-27T20:46:13.073Z,45.80
2023-04-27T20:48:39.675Z,45.50
2023-04-27T20:51:06.155Z,45.50
2023-04-27T20:53:32.666Z,45.70
2023-04-27T20:55:59.166Z,45.40
2023-04-27T20:58:25.670Z,45.80
2023-04-27T21:00:52.251Z,45.40
2023-04-27T21:03:18.863Z,45.40
2023-04-27T21:05:45.450Z,45.50
2023-04-27T21:08:11.938Z,45.60
2023-04-27T21:10:38.468Z,45.40
2023-04-27T21:13:04.993Z,45.50
2023-04-27T21:15:31.482Z,45.40
2023-04-27T21:17:57.983Z,45.40
2023-04-27T21:20:24.504Z,45.40
2023-04-27T21:22:50.991Z,45.50
2023-04-27T21:25:17.493Z,45.40
2023-04-27T21:27:43.962Z,45.40
2023-04-27T21:30:10.443Z,45.40
2023-04-27T21:32:36.960Z,45.30
2023-04-27T21:35:03.492Z,45.40
2023-04-27T21:37:29.988Z,45.20
2023-04-27T21:39:56.473Z,45.50
2023-04-27T21:42:22.957Z,45.20
2023-04-27T21:44:49.416Z,45.10
2023-04-27T21:47:20.849Z,45.50
2023-04-27T21:49:47.332Z,45.30
2023-04-27T21:52:13.846Z,45.30
2023-04-27T21:54:40.350Z,45.50
2023-04-27T21:57:06.839Z,45.70
2023-04-27T21:59:33.328Z,45.40
2023-04-27T22:01:59.907Z,45.20
2023-04-27T22:04:26.581Z,45.00
2023-04-27T22:06:53.161Z,45.10
2023-04-27T22:09:19.671Z,45.20
2023-04-27T22:11:46.181Z,45.00
2023-04-27T22:14:12.786Z,44.90
2023-04-27T22:16:39.548Z,44.90
2023-04-27T22:19:06.088Z,45.20
2023-04-27T22:21:32.580Z,44.90
2023-04-27T22:23:59.056Z,45.10
2023-04-27T22:26:25.518Z,45.30
2023-04-27T22:28:52.017Z,45.00
2023-04-27T22:31:18.526Z,44.90
2023-04-27T22:33:45.031Z,45.00
2023-04-27T22:36:11.510Z,45.10
2023-04-27T22:38:37.973Z,44.90
2023-04-27T22:41:04.452Z,44.90
2023-04-27T22:43:30.928Z,45.20
2023-04-27T22:45:57.390Z,45.10
2023-04-27T22:48:23.848Z,45.00
2023-04-27T22:50:50.306Z,45.00
2023-04-27T22:53:16.756Z,45.10
2023-04-27T22:55:43.206Z,44.90
2023-04-27T22:58:09.689Z,45.30
2023-04-27T23:00:36.168Z,45.00
2023-04-27T23:03:02.726Z,45.00
2023-04-27T23:05:29.250Z,45.10
2023-04-27T23:07:55.727Z,45.10
2023-04-27T23:10:22.219Z,45.40
2023-04-27T23:12:48.714Z,45.10
2023-04-27T23:15:15.185Z,45.20
2023-04-27T23:17:41.670Z,44.90
2023-04-27T23:20:11.188Z,45.20
2023-04-27T23:22:43.780Z,45.00
2023-04-27T23:25:10.290Z,45.00
2023-04-27T23:27:36.777Z,45.20
2023-04-27T23:30:03.266Z,45.50
2023-04-27T23:32:29.815Z,45.20
2023-04-27T23:34:56.298Z,45.30
2023-04-27T23:37:22.791Z,45.10
2023-04-27T23:39:49.255Z,45.10
2023-04-27T23:42:15.753Z,45.70
2023-04-27T23:44:42.253Z,45.30
2023-04-27T23:47:08.769Z,45.10
2023-04-27T23:49:35.253Z,45.30
2023-04-27T23:52:01.756Z,45.10
2023-04-27T23:54:28.224Z,45.20
2023-04-27T23:56:54.733Z,45.10
2023-04-27T23:59:21.195Z,45.10
